createdAt,value
2018-11-22T12:16:44.348Z,98865.78
2018-11-22T12:21:38.185Z,98880.95
2018-11-22T12:26:33.037Z,98872.90
2018-11-22T12:31:26.620Z,98876.64
2018-11-22T12:36:21.745Z,98869.12
2018-11-22T12:41:15.270Z,98869.33
2018-11-22T12:46:08.760Z,98873.80
2018-11-22T12:51:02.343Z,98870.08
2018-11-22T12:55:59.975Z,98875.63
2018-11-22T13:00:54.004Z,98875.61
2018-11-22T13:05:47.487Z,98877.66
2018-11-22T13:10:41.237Z,98889.14
2018-11-22T13:15:34.795Z,98894.00
2018-11-22T13:20:28.268Z,98891.23
2018-11-22T13:25:23.625Z,98898.30
2018-11-22T13:30:18.973Z,98899.03
2018-11-22T13:35:13.625Z,98896.61
2018-11-22T13:40:08.837Z,98913.16
2018-11-22T13:45:06.748Z,98907.81
2018-11-22T13:50:00.569Z,98903.10
2018-11-22T13:54:54.488Z,98913.66
2018-11-22T13:59:48.118Z,98921.56
2018-11-22T14:04:42.208Z,98929.86
2018-11-22T14:09:35.782Z,98934.14
2018-11-22T14:14:29.273Z,98935.53
2018-11-22T14:19:23.034Z,98946.20
2018-11-22T14:24:17.551Z,98944.45
2018-11-22T14:34:21.777Z,98957.56
2018-11-22T14:39:15.723Z,98963.42
2018-11-22T14:44:09.229Z,98971.42
2018-11-22T14:49:04.748Z,98971.93
2018-11-22T14:53:58.564Z,98974.80
2018-11-22T14:58:52.508Z,98988.50
2018-11-22T15:03:46.835Z,98997.23
2018-11-22T15:08:40.423Z,98990.73
2018-11-22T15:13:34.283Z,98993.24
2018-11-22T15:18:27.797Z,99001.63
2018-11-22T15:23:21.268Z,99005.86
2018-11-22T15:28:14.860Z,99007.77
2018-11-22T15:33:08.446Z,99020.56
2018-11-22T15:38:02.042Z,99015.64
2018-11-22T15:42:57.794Z,99032.50
2018-11-22T15:47:51.471Z,99030.05
2018-11-22T15:52:45.231Z,99022.67
2018-11-22T15:57:40.012Z,99030.70
2018-11-22T16:02:33.474Z,99030.33
2018-11-22T16:07:27.143Z,99033.55
2018-11-22T16:12:21.223Z,99048.87
2018-11-22T16:17:14.883Z,99040.06
2018-11-22T16:22:09.172Z,99051.77
2018-11-22T16:27:03.378Z,99052.17
2018-11-22T16:31:56.886Z,99051.57
2018-11-22T16:36:50.330Z,99052.95
2018-11-22T16:41:43.941Z,99059.85
2018-11-22T16:46:37.434Z,99064.68
2018-11-22T16:51:31.085Z,99066.37
2018-11-22T16:56:24.820Z,99064.05
2018-11-22T17:01:18.279Z,99068.12
2018-11-22T17:06:11.865Z,99069.66
2018-11-22T17:11:05.696Z,99059.62
2018-11-22T17:15:59.590Z,99060.95
2018-11-22T17:26:09.285Z,99067.55
2018-11-22T17:31:02.941Z,99071.37
2018-11-22T17:35:56.913Z,99066.70
2018-11-22T17:40:51.418Z,99069.41
2018-11-22T17:45:47.684Z,99075.21
2018-11-22T17:50:43.467Z,99071.70
2018-11-22T17:55:38.648Z,99072.38
2018-11-22T18:00:34.888Z,99067.44
2018-11-22T18:05:28.802Z,99066.55
2018-11-22T18:10:24.079Z,99064.06
2018-11-22T18:15:19.032Z,99072.25
2018-11-22T18:20:16.232Z,99076.58
2018-11-22T18:25:12.850Z,99082.31
2018-11-22T18:30:09.426Z,99086.08
2018-11-22T18:35:03.896Z,99088.59
2018-11-22T18:39:58.381Z,99088.72
2018-11-22T18:44:52.189Z,99084.24
2018-11-22T18:49:48.222Z,99097.10
2018-11-22T18:54:41.914Z,99094.94
2018-11-22T18:59:35.823Z,99093.20
2018-11-22T19:04:29.348Z,99097.29
2018-11-22T19:09:23.171Z,99101.28
2018-11-22T19:14:16.962Z,99103.99
2018-11-22T19:19:10.491Z,99102.25
2018-11-22T19:24:04.252Z,99117.08
2018-11-22T19:28:57.699Z,99114.88
2018-11-22T19:33:52.167Z,99118.04
2018-11-22T19:38:45.665Z,99121.17
2018-11-22T19:43:39.696Z,99126.13
2018-11-22T19:48:33.357Z,99124.84
2018-11-22T19:53:27.212Z,99126.92
2018-11-22T19:58:20.757Z,99122.47
2018-11-22T20:03:15.506Z,99130.19
2018-11-22T20:08:12.970Z,99130.03
2018-11-22T20:13:07.131Z,99134.11
2018-11-22T20:18:01.701Z,99132.82
2018-11-22T20:22:56.007Z,99141.84
2018-11-22T20:27:51.175Z,99143.45
2018-11-22T20:32:44.911Z,99139.41
2018-11-22T20:37:38.876Z,99140.91
2018-11-22T20:42:32.661Z,99145.92
2018-11-22T20:47:26.405Z,99144.98
2018-11-22T20:52:20.288Z,99146.98
2018-11-22T20:57:14.787Z,99145.69
2018-11-22T21:02:08.309Z,99153.34
2018-11-22T21:07:02.228Z,99155.73
2018-11-22T21:11:56.603Z,99152.55
2018-11-22T21:16:50.108Z,99160.98
2018-11-22T21:21:43.503Z,99157.80
2018-11-22T21:26:37.113Z,99157.38
2018-11-22T21:31:30.929Z,99158.16
2018-11-22T21:36:24.512Z,99156.87
2018-11-22T21:41:18.362Z,99160.44
2018-11-22T21:46:11.805Z,99154.59
2018-11-22T21:51:05.416Z,99143.61
2018-11-22T21:55:58.951Z,99153.73
2018-11-22T22:00:52.418Z,99149.41
2018-11-22T22:05:46.082Z,99150.35
2018-11-22T22:10:39.624Z,99146.43
2018-11-22T22:15:34.098Z,99148.45
2018-11-22T22:20:29.231Z,99143.86
2018-11-22T22:25:23.622Z,99142.09
2018-11-22T22:30:19.468Z,99137.07
2018-11-22T22:35:13.490Z,99131.30
2018-11-22T22:40:09.653Z,99131.77
2018-11-22T22:45:04.179Z,99132.05
2018-11-22T22:49:58.153Z,99137.36
2018-11-22T22:54:51.667Z,99136.61
2018-11-22T22:59:45.113Z,99130.10
2018-11-22T23:04:38.632Z,99125.84
2018-11-22T23:09:32.135Z,99128.09
2018-11-22T23:14:26.184Z,99129.66
2018-11-22T23:19:19.706Z,99135.81
2018-11-22T23:24:13.454Z,99125.55
2018-11-22T23:29:06.973Z,99125.25
2018-11-22T23:34:00.439Z,99128.94
2018-11-22T23:38:54.328Z,99126.75
2018-11-22T23:43:47.822Z,99123.02
2018-11-22T23:48:41.333Z,99126.13
2018-11-22T23:53:34.815Z,99142.27
2018-11-22T23:58:29.370Z,99152.31
